Cle Elum, WA (98922)

5:49 PM PST on January 21, 2017 (GMT -0800)
Cle Elum-Roslyn High School | | Change Station

Elev 2107 ft 47.20 °N, 120.97 °W | Updated 12 minutes ago

Overcast
Overcast
35.5 °F
Feels Like 36 °F
N
0.0
Wind Variable Wind from South

Today
High -- | Low -- °F
--% Chance of Precip.
Yesterday
High -- | Low -- °F
Precip. -- in
Pressure 29.55 in
Visibility 9.0 miles
Clouds Mostly Cloudy 2100 ft
Overcast 3200 ft
Windchill 36 °F
Dew Point 33 °F
Humidity 91%
Rainfall 0.36 in
Snow Depth Not available.
7:40 AM 4:50 PM
Waning Crescent, 30% visible
SPECI KELN 220139Z AUTO 10003KT 9SM -RA BKN021 OVC032 02/00 A2955 RMK AO2 RAB21 P0001 T00220000
Pressure 29.55 in
Visibility 9.0 miles
Clouds Mostly Cloudy 2100 ft
Overcast 3200 ft
Windchill 36 °F
Dew Point 33 °F
Humidity 91%
Rainfall 0.36 in
Snow Depth Not available.
7:40 AM 4:50 PM
Waning Crescent, 30% visible
SPECI KELN 220139Z AUTO 10003KT 9SM -RA BKN021 OVC032 02/00 A2955 RMK AO2 RAB21 P0001 T00220000

Get Your Daily Forecast Email!

Thanks for signing up!

Be on the lookout for a verification email in your inbox.

You'll start receiving the daily forecast at 8 AM.

×

10-Day Weather Forecast

Almanac

Astronomy

Jan. 21, 2017 Rise Set
Actual Time
Civil Twilight
Nautical Twilight
Astronomical Twilight
Moon
Length of Visible Light
Length of Day
Tomorrow will be .
, % of the Moon is Illuminated

Today's Extremes

State Highs State Lows

Community

WunderPhotos

Upload Photos

1,962,540 photos uploaded!

WunderBlog® & News

Nearby

Air Quality

  Air Quality AQ Index Pollutant
Not available.

Snow Depth

Station Depth Elevation

Earthquake Activity

City Distance Mag. Time & Date
Minimum magnitude displayed is 2.5.

Coastal Water Temperatures

Place Temperature

Stations

Nearby Weather Stations

Station Location Temp. Windchill Dew Point Humidity Wind Precip. Elev Updated Type
                   

Watches & Warnings

There are currently no watches in effect.